Mount Angel, Oregon
Current Conditions -  °F | °C
As of 1:02 PM on Tuesday 27 Jan 2015 (Local Time) from KUAO Reporting Station
Haze Haze  
Wind Chill: 47°   Ceiling: 400
Heat Index: 47°   Visibility: 6mi
Dew Point: 46°   Wind: 3mph
Humidity: 97%   Direction: 180°S
Pressure: 30.16"   Gusts: NA
Location:  45.07°N, 122.8°W
Report Text: KUAO 272102Z AUTO 18003KT 6SM BR OVC004 08/08 A3016 RMK AO2 T00830078
Loading
Personal Weather Stations






























Interactive Weather Map New forecast layout! Learn more

10-Day Weather Forecast

Advertisements
Track Severe Weather on mobile